sensor_id;sensor_type;location;lat;lon;timestamp;P1;durP1;ratioP1;P2;durP2;ratioP2
35715;SDS011;21840;44.920;8.616;2023-02-03T00:00:15;29.40;;;14.35;;
35715;SDS011;21840;44.920;8.616;2023-02-03T00:02:41;31.73;;;14.07;;
35715;SDS011;21840;44.920;8.616;2023-02-03T00:05:07;29.85;;;14.75;;
35715;SDS011;21840;44.920;8.616;2023-02-03T00:07:32;27.80;;;13.05;;
35715;SDS011;21840;44.920;8.616;2023-02-03T00:10:00;26.05;;;12.60;;
35715;SDS011;21840;44.920;8.616;2023-02-03T00:12:26;26.77;;;13.77;;
35715;SDS011;21840;44.920;8.616;2023-02-03T00:14:51;29.45;;;13.75;;
35715;SDS011;21840;44.920;8.616;2023-02-03T00:17:17;27.90;;;13.63;;
35715;SDS011;21840;44.920;8.616;2023-02-03T00:19:42;26.60;;;13.20;;
35715;SDS011;21840;44.920;8.616;2023-02-03T00:22:07;30.40;;;13.65;;
35715;SDS011;21840;44.920;8.616;2023-02-03T00:24:33;30.83;;;13.75;;
35715;SDS011;21840;44.920;8.616;2023-02-03T00:26:58;36.00;;;14.57;;
35715;SDS011;21840;44.920;8.616;2023-02-03T00:29:24;27.38;;;13.07;;
35715;SDS011;21840;44.920;8.616;2023-02-03T00:31:51;31.35;;;13.60;;
35715;SDS011;21840;44.920;8.616;2023-02-03T00:34:17;25.45;;;12.55;;
35715;SDS011;21840;44.920;8.616;2023-02-03T00:36:44;29.55;;;15.05;;
35715;SDS011;21840;44.920;8.616;2023-02-03T00:39:12;26.70;;;12.90;;
35715;SDS011;21840;44.920;8.616;2023-02-03T00:41:39;31.42;;;13.13;;
35715;SDS011;21840;44.920;8.616;2023-02-03T00:44:05;25.77;;;13.23;;
35715;SDS011;21840;44.920;8.616;2023-02-03T00:46:31;29.00;;;13.15;;
35715;SDS011;21840;44.920;8.616;2023-02-03T00:48:56;33.00;;;14.25;;
35715;SDS011;21840;44.920;8.616;2023-02-03T00:51:22;29.58;;;14.80;;
35715;SDS011;21840;44.920;8.616;2023-02-03T00:53:47;29.70;;;13.70;;
35715;SDS011;21840;44.920;8.616;2023-02-03T00:56:13;34.38;;;14.30;;
35715;SDS011;21840;44.920;8.616;2023-02-03T00:58:39;28.67;;;14.13;;
35715;SDS011;21840;44.920;8.616;2023-02-03T01:01:05;30.92;;;14.48;;
35715;SDS011;21840;44.920;8.616;2023-02-03T01:03:31;29.48;;;13.48;;
35715;SDS011;21840;44.920;8.616;2023-02-03T01:06:06;36.10;;;14.48;;
35715;SDS011;21840;44.920;8.616;2023-02-03T01:08:42;33.67;;;13.98;;
35715;SDS011;21840;44.920;8.616;2023-02-03T01:11:09;32.72;;;13.63;;
35715;SDS011;21840;44.920;8.616;2023-02-03T01:13:41;31.83;;;14.77;;
35715;SDS011;21840;44.920;8.616;2023-02-03T01:16:11;31.25;;;15.15;;
35715;SDS011;21840;44.920;8.616;2023-02-03T01:18:38;33.42;;;14.93;;
35715;SDS011;21840;44.920;8.616;2023-02-03T01:21:05;33.78;;;16.30;;
35715;SDS011;21840;44.920;8.616;2023-02-03T01:23:32;28.67;;;16.67;;
35715;SDS011;21840;44.920;8.616;2023-02-03T01:26:07;34.10;;;15.85;;
35715;SDS011;21840;44.920;8.616;2023-02-03T01:28:34;37.88;;;15.73;;
35715;SDS011;21840;44.920;8.616;2023-02-03T01:31:14;29.30;;;15.45;;
35715;SDS011;21840;44.920;8.616;2023-02-03T01:33:42;30.20;;;15.07;;
35715;SDS011;21840;44.920;8.616;2023-02-03T01:36:11;27.08;;;14.50;;
35715;SDS011;21840;44.920;8.616;2023-02-03T01:38:37;31.95;;;14.57;;
35715;SDS011;21840;44.920;8.616;2023-02-03T01:41:03;33.30;;;15.40;;
35715;SDS011;21840;44.920;8.616;2023-02-03T01:43:30;33.00;;;14.45;;
35715;SDS011;21840;44.920;8.616;2023-02-03T01:46:02;30.35;;;14.38;;
35715;SDS011;21840;44.920;8.616;2023-02-03T01:48:31;34.38;;;14.50;;
35715;SDS011;21840;44.920;8.616;2023-02-03T01:51:01;27.00;;;13.15;;
35715;SDS011;21840;44.920;8.616;2023-02-03T01:53:29;35.55;;;15.40;;
35715;SDS011;21840;44.920;8.616;2023-02-03T01:55:55;32.15;;;14.65;;
35715;SDS011;21840;44.920;8.616;2023-02-03T01:58:24;28.50;;;14.10;;
35715;SDS011;21840;44.920;8.616;2023-02-03T02:00:54;29.33;;;14.68;;
35715;SDS011;21840;44.920;8.616;2023-02-03T02:03:23;31.45;;;15.25;;
35715;SDS011;21840;44.920;8.616;2023-02-03T02:05:56;35.83;;;16.13;;
35715;SDS011;21840;44.920;8.616;2023-02-03T02:08:29;32.47;;;15.95;;
35715;SDS011;21840;44.920;8.616;2023-02-03T02:10:55;30.40;;;15.15;;
35715;SDS011;21840;44.920;8.616;2023-02-03T02:13:23;29.85;;;15.13;;
35715;SDS011;21840;44.920;8.616;2023-02-03T02:15:52;30.15;;;14.82;;
35715;SDS011;21840;44.920;8.616;2023-02-03T02:43:57;30.80;;;14.05;;
35715;SDS011;21840;44.920;8.616;2023-02-03T02:46:49;25.30;;;13.88;;
35715;SDS011;21840;44.920;8.616;2023-02-03T02:49:21;30.38;;;14.48;;
35715;SDS011;21840;44.920;8.616;2023-02-03T02:51:53;35.65;;;13.82;;
35715;SDS011;21840;44.920;8.616;2023-02-03T02:54:22;31.27;;;13.80;;
35715;SDS011;21840;44.920;8.616;2023-02-03T02:56:54;30.60;;;14.70;;
35715;SDS011;21840;44.920;8.616;2023-02-03T02:59:22;29.33;;;14.65;;
35715;SDS011;21840;44.920;8.616;2023-02-03T03:01:48;24.90;;;13.45;;
35715;SDS011;21840;44.920;8.616;2023-02-03T03:04:14;33.78;;;14.70;;
35715;SDS011;21840;44.920;8.616;2023-02-03T03:06:47;28.92;;;13.80;;
35715;SDS011;21840;44.920;8.616;2023-02-03T03:09:20;29.35;;;14.40;;
35715;SDS011;21840;44.920;8.616;2023-02-03T03:11:58;25.33;;;14.10;;
35715;SDS011;21840;44.920;8.616;2023-02-03T03:14:30;34.00;;;15.05;;
35715;SDS011;21840;44.920;8.616;2023-02-03T03:17:01;31.40;;;14.35;;
35715;SDS011;21840;44.920;8.616;2023-02-03T03:19:34;32.17;;;14.55;;
35715;SDS011;21840;44.920;8.616;2023-02-03T03:22:05;26.95;;;14.52;;
35715;SDS011;21840;44.920;8.616;2023-02-03T03:24:34;33.42;;;17.23;;
35715;SDS011;21840;44.920;8.616;2023-02-03T03:27:17;30.25;;;14.68;;
35715;SDS011;21840;44.920;8.616;2023-02-03T03:29:46;32.50;;;15.07;;
35715;SDS011;21840;44.920;8.616;2023-02-03T03:32:15;33.72;;;16.73;;
35715;SDS011;21840;44.920;8.616;2023-02-03T03:34:41;31.73;;;16.52;;
35715;SDS011;21840;44.920;8.616;2023-02-03T03:37:31;35.45;;;16.13;;
35715;SDS011;21840;44.920;8.616;2023-02-03T03:40:02;28.40;;;15.23;;
35715;SDS011;21840;44.920;8.616;2023-02-03T03:45:14;42.33;;;16.98;;
35715;SDS011;21840;44.920;8.616;2023-02-03T03:47:46;30.70;;;14.13;;
35715;SDS011;21840;44.920;8.616;2023-02-03T03:50:20;28.27;;;15.02;;
35715;SDS011;21840;44.920;8.616;2023-02-03T03:52:49;33.33;;;16.05;;
35715;SDS011;21840;44.920;8.616;2023-02-03T03:55:17;31.25;;;14.88;;
35715;SDS011;21840;44.920;8.616;2023-02-03T03:57:52;30.35;;;15.75;;
35715;SDS011;21840;44.920;8.616;2023-02-03T04:00:23;32.95;;;15.90;;
35715;SDS011;21840;44.920;8.616;2023-02-03T04:02:52;33.08;;;15.38;;
35715;SDS011;21840;44.920;8.616;2023-02-03T04:05:21;30.73;;;16.42;;
35715;SDS011;21840;44.920;8.616;2023-02-03T04:07:48;35.92;;;17.10;;
35715;SDS011;21840;44.920;8.616;2023-02-03T04:13:01;33.42;;;15.25;;
35715;SDS011;21840;44.920;8.616;2023-02-03T04:15:30;33.88;;;16.00;;
35715;SDS011;21840;44.920;8.616;2023-02-03T04:17:56;33.70;;;15.75;;
35715;SDS011;21840;44.920;8.616;2023-02-03T04:20:22;30.27;;;16.40;;
35715;SDS011;21840;44.920;8.616;2023-02-03T04:22:48;35.55;;;17.13;;
35715;SDS011;21840;44.920;8.616;2023-02-03T04:25:14;30.85;;;15.93;;
35715;SDS011;21840;44.920;8.616;2023-02-03T04:27:39;34.05;;;17.10;;
35715;SDS011;21840;44.920;8.616;2023-02-03T04:30:05;29.83;;;15.52;;
35715;SDS011;21840;44.920;8.616;2023-02-03T04:32:31;29.83;;;17.10;;
35715;SDS011;21840;44.920;8.616;2023-02-03T04:34:59;33.78;;;17.48;;
35715;SDS011;21840;44.920;8.616;2023-02-03T04:37:25;34.30;;;16.98;;
35715;SDS011;21840;44.920;8.616;2023-02-03T04:39:51;32.03;;;16.85;;
35715;SDS011;21840;44.920;8.616;2023-02-03T04:42:17;33.17;;;15.68;;
35715;SDS011;21840;44.920;8.616;2023-02-03T04:44:43;36.20;;;17.45;;
35715;SDS011;21840;44.920;8.616;2023-02-03T04:47:09;33.13;;;17.10;;
35715;SDS011;21840;44.920;8.616;2023-02-03T04:49:34;37.30;;;16.33;;
35715;SDS011;21840;44.920;8.616;2023-02-03T04:51:59;35.97;;;16.38;;
35715;SDS011;21840;44.920;8.616;2023-02-03T04:54:25;28.20;;;15.95;;
35715;SDS011;21840;44.920;8.616;2023-02-03T04:56:50;39.72;;;16.63;;
35715;SDS011;21840;44.920;8.616;2023-02-03T04:59:16;39.10;;;17.05;;
35715;SDS011;21840;44.920;8.616;2023-02-03T05:01:41;33.28;;;17.73;;
35715;SDS011;21840;44.920;8.616;2023-02-03T05:04:07;29.23;;;15.25;;
35715;SDS011;21840;44.920;8.616;2023-02-03T05:06:32;37.35;;;17.48;;
35715;SDS011;21840;44.920;8.616;2023-02-03T05:08:58;36.90;;;18.15;;
35715;SDS011;21840;44.920;8.616;2023-02-03T05:11:23;35.88;;;18.23;;
35715;SDS011;21840;44.920;8.616;2023-02-03T05:13:49;33.60;;;16.67;;
35715;SDS011;21840;44.920;8.616;2023-02-03T05:16:15;32.35;;;16.98;;
35715;SDS011;21840;44.920;8.616;2023-02-03T05:18:40;36.63;;;18.17;;
35715;SDS011;21840;44.920;8.616;2023-02-03T05:21:06;38.40;;;17.20;;
35715;SDS011;21840;44.920;8.616;2023-02-03T05:23:31;35.72;;;17.88;;
35715;SDS011;21840;44.920;8.616;2023-02-03T05:25:57;32.90;;;17.30;;
35715;SDS011;21840;44.920;8.616;2023-02-03T05:28:22;33.30;;;17.70;;
35715;SDS011;21840;44.920;8.616;2023-02-03T05:30:48;34.42;;;17.27;;
35715;SDS011;21840;44.920;8.616;2023-02-03T05:33:14;35.25;;;17.52;;
35715;SDS011;21840;44.920;8.616;2023-02-03T05:35:39;40.35;;;18.05;;
35715;SDS011;21840;44.920;8.616;2023-02-03T05:38:05;33.70;;;18.08;;
35715;SDS011;21840;44.920;8.616;2023-02-03T05:40:30;36.88;;;18.65;;
35715;SDS011;21840;44.920;8.616;2023-02-03T05:43:14;39.92;;;18.70;;
35715;SDS011;21840;44.920;8.616;2023-02-03T05:45:40;36.60;;;18.20;;
35715;SDS011;21840;44.920;8.616;2023-02-03T05:48:05;43.40;;;18.38;;
35715;SDS011;21840;44.920;8.616;2023-02-03T05:50:31;39.05;;;19.73;;
35715;SDS011;21840;44.920;8.616;2023-02-03T05:53:06;46.25;;;20.58;;
35715;SDS011;21840;44.920;8.616;2023-02-03T05:55:32;41.45;;;19.67;;
35715;SDS011;21840;44.920;8.616;2023-02-03T05:57:57;43.30;;;20.48;;
35715;SDS011;21840;44.920;8.616;2023-02-03T06:00:24;37.17;;;18.70;;
35715;SDS011;21840;44.920;8.616;2023-02-03T06:02:53;40.67;;;18.13;;
35715;SDS011;21840;44.920;8.616;2023-02-03T06:05:20;44.53;;;20.88;;
35715;SDS011;21840;44.920;8.616;2023-02-03T06:07:46;39.47;;;20.35;;
35715;SDS011;21840;44.920;8.616;2023-02-03T06:10:12;42.28;;;18.85;;
35715;SDS011;21840;44.920;8.616;2023-02-03T06:12:38;39.28;;;18.63;;
35715;SDS011;21840;44.920;8.616;2023-02-03T06:15:03;39.65;;;19.95;;
35715;SDS011;21840;44.920;8.616;2023-02-03T06:17:30;37.05;;;18.65;;
35715;SDS011;21840;44.920;8.616;2023-02-03T06:19:56;37.10;;;18.08;;
35715;SDS011;21840;44.920;8.616;2023-02-03T06:22:21;40.88;;;19.48;;
35715;SDS011;21840;44.920;8.616;2023-02-03T06:24:47;41.50;;;19.23;;
35715;SDS011;21840;44.920;8.616;2023-02-03T06:27:13;41.83;;;19.38;;
35715;SDS011;21840;44.920;8.616;2023-02-03T06:29:39;34.08;;;18.35;;
35715;SDS011;21840;44.920;8.616;2023-02-03T06:32:06;36.25;;;18.25;;
35715;SDS011;21840;44.920;8.616;2023-02-03T06:34:31;35.65;;;18.50;;
35715;SDS011;21840;44.920;8.616;2023-02-03T06:36:57;38.55;;;18.95;;
35715;SDS011;21840;44.920;8.616;2023-02-03T06:39:23;38.70;;;20.25;;
35715;SDS011;21840;44.920;8.616;2023-02-03T06:41:49;46.17;;;19.02;;
35715;SDS011;21840;44.920;8.616;2023-02-03T06:44:16;35.92;;;17.85;;
35715;SDS011;21840;44.920;8.616;2023-02-03T06:46:41;35.20;;;19.25;;
35715;SDS011;21840;44.920;8.616;2023-02-03T06:49:07;36.88;;;18.80;;
35715;SDS011;21840;44.920;8.616;2023-02-03T06:51:32;36.20;;;18.88;;
35715;SDS011;21840;44.920;8.616;2023-02-03T06:53:58;43.50;;;19.42;;
35715;SDS011;21840;44.920;8.616;2023-02-03T06:56:23;45.10;;;19.30;;
35715;SDS011;21840;44.920;8.616;2023-02-03T06:58:49;42.15;;;19.38;;
35715;SDS011;21840;44.920;8.616;2023-02-03T07:01:14;39.80;;;20.15;;
35715;SDS011;21840;44.920;8.616;2023-02-03T07:03:40;43.83;;;18.92;;
35715;SDS011;21840;44.920;8.616;2023-02-03T07:06:05;36.53;;;18.98;;
35715;SDS011;21840;44.920;8.616;2023-02-03T07:08:31;38.15;;;18.95;;
35715;SDS011;21840;44.920;8.616;2023-02-03T07:10:56;39.67;;;18.60;;
35715;SDS011;21840;44.920;8.616;2023-02-03T07:13:21;33.72;;;18.23;;
35715;SDS011;21840;44.920;8.616;2023-02-03T07:15:47;37.90;;;18.45;;
35715;SDS011;21840;44.920;8.616;2023-02-03T07:18:12;37.38;;;20.15;;
35715;SDS011;21840;44.920;8.616;2023-02-03T07:20:38;35.67;;;18.70;;
35715;SDS011;21840;44.920;8.616;2023-02-03T07:23:03;44.38;;;19.90;;
35715;SDS011;21840;44.920;8.616;2023-02-03T07:25:29;44.72;;;18.73;;
35715;SDS011;21840;44.920;8.616;2023-02-03T07:27:55;35.42;;;18.30;;
35715;SDS011;21840;44.920;8.616;2023-02-03T07:30:20;36.15;;;18.67;;
35715;SDS011;21840;44.920;8.616;2023-02-03T07:32:47;37.08;;;19.42;;
35715;SDS011;21840;44.920;8.616;2023-02-03T07:35:13;37.72;;;18.90;;
35715;SDS011;21840;44.920;8.616;2023-02-03T07:37:40;37.42;;;19.23;;
35715;SDS011;21840;44.920;8.616;2023-02-03T07:40:06;34.75;;;18.85;;
35715;SDS011;21840;44.920;8.616;2023-02-03T07:42:31;38.92;;;17.65;;
35715;SDS011;21840;44.920;8.616;2023-02-03T07:44:57;36.72;;;19.75;;
35715;SDS011;21840;44.920;8.616;2023-02-03T07:47:22;42.58;;;18.48;;
35715;SDS011;21840;44.920;8.616;2023-02-03T07:49:48;33.95;;;19.33;;
35715;SDS011;21840;44.920;8.616;2023-02-03T07:52:13;41.42;;;19.77;;
35715;SDS011;21840;44.920;8.616;2023-02-03T07:54:39;34.50;;;17.83;;
35715;SDS011;21840;44.920;8.616;2023-02-03T07:57:04;33.45;;;18.50;;
35715;SDS011;21840;44.920;8.616;2023-02-03T07:59:29;44.08;;;19.02;;
35715;SDS011;21840;44.920;8.616;2023-02-03T08:01:55;35.05;;;18.88;;
35715;SDS011;21840;44.920;8.616;2023-02-03T08:04:21;37.47;;;18.88;;
35715;SDS011;21840;44.920;8.616;2023-02-03T08:06:47;42.13;;;19.20;;
35715;SDS011;21840;44.920;8.616;2023-02-03T08:09:12;41.83;;;18.13;;
35715;SDS011;21840;44.920;8.616;2023-02-03T08:11:37;35.95;;;18.35;;
35715;SDS011;21840;44.920;8.616;2023-02-03T08:14:03;37.35;;;18.98;;
35715;SDS011;21840;44.920;8.616;2023-02-03T08:16:28;37.97;;;19.27;;
35715;SDS011;21840;44.920;8.616;2023-02-03T08:18:54;43.67;;;20.02;;
35715;SDS011;21840;44.920;8.616;2023-02-03T08:21:19;42.20;;;19.77;;
35715;SDS011;21840;44.920;8.616;2023-02-03T08:23:45;37.67;;;19.90;;
35715;SDS011;21840;44.920;8.616;2023-02-03T08:26:10;43.63;;;19.67;;
35715;SDS011;21840;44.920;8.616;2023-02-03T08:28:36;39.95;;;20.33;;
35715;SDS011;21840;44.920;8.616;2023-02-03T08:31:07;41.80;;;20.48;;
35715;SDS011;21840;44.920;8.616;2023-02-03T08:33:33;38.67;;;19.27;;
35715;SDS011;21840;44.920;8.616;2023-02-03T08:35:59;41.88;;;20.33;;
35715;SDS011;21840;44.920;8.616;2023-02-03T08:38:25;37.38;;;19.02;;
35715;SDS011;21840;44.920;8.616;2023-02-03T08:40:50;42.35;;;19.38;;
35715;SDS011;21840;44.920;8.616;2023-02-03T08:43:16;41.33;;;19.75;;
35715;SDS011;21840;44.920;8.616;2023-02-03T08:45:41;39.30;;;20.63;;
35715;SDS011;21840;44.920;8.616;2023-02-03T08:48:07;38.78;;;20.58;;
35715;SDS011;21840;44.920;8.616;2023-02-03T08:50:32;39.92;;;21.65;;
35715;SDS011;21840;44.920;8.616;2023-02-03T08:52:58;41.08;;;19.52;;
35715;SDS011;21840;44.920;8.616;2023-02-03T08:55:24;38.97;;;20.05;;
35715;SDS011;21840;44.920;8.616;2023-02-03T08:57:49;38.08;;;20.77;;
35715;SDS011;21840;44.920;8.616;2023-02-03T09:00:15;38.05;;;19.67;;
35715;SDS011;21840;44.920;8.616;2023-02-03T09:02:40;34.30;;;19.17;;
35715;SDS011;21840;44.920;8.616;2023-02-03T09:05:06;38.20;;;20.25;;
35715;SDS011;21840;44.920;8.616;2023-02-03T09:07:32;47.45;;;21.13;;
35715;SDS011;21840;44.920;8.616;2023-02-03T09:09:57;48.20;;;19.88;;
35715;SDS011;21840;44.920;8.616;2023-02-03T09:12:23;38.30;;;20.10;;
35715;SDS011;21840;44.920;8.616;2023-02-03T09:14:48;45.70;;;20.98;;
35715;SDS011;21840;44.920;8.616;2023-02-03T09:17:14;38.88;;;21.13;;
35715;SDS011;21840;44.920;8.616;2023-02-03T09:19:39;39.63;;;21.00;;
35715;SDS011;21840;44.920;8.616;2023-02-03T09:22:05;36.00;;;20.05;;
35715;SDS011;21840;44.920;8.616;2023-02-03T09:24:30;39.13;;;20.30;;
35715;SDS011;21840;44.920;8.616;2023-02-03T09:26:56;37.42;;;20.55;;
35715;SDS011;21840;44.920;8.616;2023-02-03T09:29:21;42.17;;;21.63;;
35715;SDS011;21840;44.920;8.616;2023-02-03T09:31:50;47.58;;;20.65;;
35715;SDS011;21840;44.920;8.616;2023-02-03T09:34:18;36.88;;;20.67;;
35715;SDS011;21840;44.920;8.616;2023-02-03T09:36:45;42.65;;;21.38;;
35715;SDS011;21840;44.920;8.616;2023-02-03T09:39:11;42.33;;;23.20;;
35715;SDS011;21840;44.920;8.616;2023-02-03T09:46:40;50.13;;;23.70;;
35715;SDS011;21840;44.920;8.616;2023-02-03T09:51:39;50.35;;;23.35;;
35715;SDS011;21840;44.920;8.616;2023-02-03T09:54:20;55.40;;;25.33;;
35715;SDS011;21840;44.920;8.616;2023-02-03T09:56:52;43.28;;;22.65;;
35715;SDS011;21840;44.920;8.616;2023-02-03T09:59:20;44.60;;;23.00;;
35715;SDS011;21840;44.920;8.616;2023-02-03T10:01:50;48.22;;;22.75;;
35715;SDS011;21840;44.920;8.616;2023-02-03T10:04:36;36.88;;;21.83;;
35715;SDS011;21840;44.920;8.616;2023-02-03T10:10:04;46.75;;;22.50;;
35715;SDS011;21840;44.920;8.616;2023-02-03T10:16:01;38.08;;;21.63;;
35715;SDS011;21840;44.920;8.616;2023-02-03T10:18:47;44.95;;;21.63;;
35715;SDS011;21840;44.920;8.616;2023-02-03T10:21:39;39.53;;;21.38;;
35715;SDS011;21840;44.920;8.616;2023-02-03T10:24:05;43.35;;;20.75;;
35715;SDS011;21840;44.920;8.616;2023-02-03T10:26:37;44.58;;;21.38;;
35715;SDS011;21840;44.920;8.616;2023-02-03T10:29:21;35.80;;;20.42;;
35715;SDS011;21840;44.920;8.616;2023-02-03T10:34:23;43.40;;;20.70;;
35715;SDS011;21840;44.920;8.616;2023-02-03T10:42:10;47.08;;;21.80;;
35715;SDS011;21840;44.920;8.616;2023-02-03T10:44:56;38.17;;;19.88;;
35715;SDS011;21840;44.920;8.616;2023-02-03T10:47:26;42.53;;;19.40;;
35715;SDS011;21840;44.920;8.616;2023-02-03T10:49:59;37.40;;;19.02;;
35715;SDS011;21840;44.920;8.616;2023-02-03T10:52:30;39.72;;;20.00;;
35715;SDS011;21840;44.920;8.616;2023-02-03T10:54:58;35.72;;;18.92;;
35715;SDS011;21840;44.920;8.616;2023-02-03T10:57:28;41.80;;;19.38;;
35715;SDS011;21840;44.920;8.616;2023-02-03T11:00:03;39.20;;;19.52;;
35715;SDS011;21840;44.920;8.616;2023-02-03T11:02:41;34.17;;;18.55;;
35715;SDS011;21840;44.920;8.616;2023-02-03T11:05:17;46.00;;;19.70;;
35715;SDS011;21840;44.920;8.616;2023-02-03T11:07:48;34.38;;;19.38;;
35715;SDS011;21840;44.920;8.616;2023-02-03T11:13:07;33.08;;;17.58;;
35715;SDS011;21840;44.920;8.616;2023-02-03T11:15:36;40.75;;;18.90;;
35715;SDS011;21840;44.920;8.616;2023-02-03T11:18:02;42.22;;;18.33;;
35715;SDS011;21840;44.920;8.616;2023-02-03T11:20:27;33.83;;;17.73;;
35715;SDS011;21840;44.920;8.616;2023-02-03T11:22:53;38.95;;;18.52;;
35715;SDS011;21840;44.920;8.616;2023-02-03T11:25:22;35.45;;;17.50;;
35715;SDS011;21840;44.920;8.616;2023-02-03T11:27:51;33.80;;;18.27;;
35715;SDS011;21840;44.920;8.616;2023-02-03T11:30:23;39.97;;;17.35;;
35715;SDS011;21840;44.920;8.616;2023-02-03T11:32:51;42.60;;;18.52;;
35715;SDS011;21840;44.920;8.616;2023-02-03T11:35:18;32.70;;;17.42;;
35715;SDS011;21840;44.920;8.616;2023-02-03T11:37:47;32.08;;;16.23;;
35715;SDS011;21840;44.920;8.616;2023-02-03T12:09:51;30.80;;;15.18;;
35715;SDS011;21840;44.920;8.616;2023-02-03T12:15:19;33.45;;;14.82;;
35715;SDS011;21840;44.920;8.616;2023-02-03T12:18:10;24.50;;;13.57;;
35715;SDS011;21840;44.920;8.616;2023-02-03T12:23:41;30.67;;;14.00;;
35715;SDS011;21840;44.920;8.616;2023-02-03T12:26:20;29.60;;;14.98;;
35715;SDS011;21840;44.920;8.616;2023-02-03T12:31:50;33.78;;;14.82;;
35715;SDS011;21840;44.920;8.616;2023-02-03T12:38:16;30.63;;;12.30;;
35715;SDS011;21840;44.920;8.616;2023-02-03T12:40:45;24.13;;;11.45;;
35715;SDS011;21840;44.920;8.616;2023-02-03T12:46:00;26.10;;;11.50;;
35715;SDS011;21840;44.920;8.616;2023-02-03T12:48:32;20.33;;;10.93;;
35715;SDS011;21840;44.920;8.616;2023-02-03T12:51:10;27.00;;;12.02;;
35715;SDS011;21840;44.920;8.616;2023-02-03T12:53:40;31.77;;;12.27;;
35715;SDS011;21840;44.920;8.616;2023-02-03T12:56:13;19.95;;;12.27;;
35715;SDS011;21840;44.920;8.616;2023-02-03T12:58:48;24.45;;;11.82;;
35715;SDS011;21840;44.920;8.616;2023-02-03T13:01:21;23.02;;;11.80;;
35715;SDS011;21840;44.920;8.616;2023-02-03T13:10:14;26.27;;;11.45;;
35715;SDS011;21840;44.920;8.616;2023-02-03T13:12:49;25.48;;;12.60;;
35715;SDS011;21840;44.920;8.616;2023-02-03T13:21:00;24.35;;;11.68;;
35715;SDS011;21840;44.920;8.616;2023-02-03T13:23:25;23.23;;;11.15;;
35715;SDS011;21840;44.920;8.616;2023-02-03T13:26:08;24.58;;;10.57;;
35715;SDS011;21840;44.920;8.616;2023-02-03T13:37:26;22.23;;;9.75;;
35715;SDS011;21840;44.920;8.616;2023-02-03T13:40:14;27.52;;;9.90;;
35715;SDS011;21840;44.920;8.616;2023-02-03T13:42:52;17.63;;;8.65;;
35715;SDS011;21840;44.920;8.616;2023-02-03T13:45:28;16.20;;;5.20;;
35715;SDS011;21840;44.920;8.616;2023-02-03T13:48:06;16.85;;;5.72;;
35715;SDS011;21840;44.920;8.616;2023-02-03T13:50:40;23.05;;;6.60;;
35715;SDS011;21840;44.920;8.616;2023-02-03T13:53:18;13.90;;;4.60;;
35715;SDS011;21840;44.920;8.616;2023-02-03T13:55:56;12.80;;;4.95;;
35715;SDS011;21840;44.920;8.616;2023-02-03T14:03:18;13.10;;;3.80;;
35715;SDS011;21840;44.920;8.616;2023-02-03T14:06:02;15.18;;;3.75;;
35715;SDS011;21840;44.920;8.616;2023-02-03T14:19:07;10.80;;;3.45;;
35715;SDS011;21840;44.920;8.616;2023-02-03T14:21:39;12.95;;;2.50;;
35715;SDS011;21840;44.920;8.616;2023-02-03T14:24:18;11.55;;;3.28;;
35715;SDS011;21840;44.920;8.616;2023-02-03T14:26:46;10.88;;;3.15;;
35715;SDS011;21840;44.920;8.616;2023-02-03T14:31:51;10.13;;;2.78;;
35715;SDS011;21840;44.920;8.616;2023-02-03T14:34:26;5.90;;;2.72;;
35715;SDS011;21840;44.920;8.616;2023-02-03T14:37:08;13.57;;;3.10;;
35715;SDS011;21840;44.920;8.616;2023-02-03T14:45:13;12.75;;;2.80;;
35715;SDS011;21840;44.920;8.616;2023-02-03T15:02:13;9.00;;;3.15;;
35715;SDS011;21840;44.920;8.616;2023-02-03T15:04:43;10.50;;;3.00;;
35715;SDS011;21840;44.920;8.616;2023-02-03T15:09:58;9.70;;;3.15;;
35715;SDS011;21840;44.920;8.616;2023-02-03T15:12:25;8.40;;;3.13;;
35715;SDS011;21840;44.920;8.616;2023-02-03T15:15:11;13.25;;;3.63;;
35715;SDS011;21840;44.920;8.616;2023-02-03T15:17:38;12.05;;;3.88;;
35715;SDS011;21840;44.920;8.616;2023-02-03T15:20:46;13.75;;;3.53;;
35715;SDS011;21840;44.920;8.616;2023-02-03T15:22:58;14.35;;;3.17;;
35715;SDS011;21840;44.920;8.616;2023-02-03T15:25:24;14.30;;;3.50;;
35715;SDS011;21840;44.920;8.616;2023-02-03T15:27:50;23.95;;;3.13;;
35715;SDS011;21840;44.920;8.616;2023-02-03T15:30:20;8.98;;;3.05;;
35715;SDS011;21840;44.920;8.616;2023-02-03T15:32:56;10.05;;;3.30;;
35715;SDS011;21840;44.920;8.616;2023-02-03T15:37:57;12.73;;;2.88;;
35715;SDS011;21840;44.920;8.616;2023-02-03T15:40:46;11.48;;;3.22;;
35715;SDS011;21840;44.920;8.616;2023-02-03T15:43:20;6.57;;;3.40;;
35715;SDS011;21840;44.920;8.616;2023-02-03T15:54:01;12.25;;;2.72;;
35715;SDS011;21840;44.920;8.616;2023-02-03T15:56:46;11.45;;;3.65;;
35715;SDS011;21840;44.920;8.616;2023-02-03T15:59:24;9.43;;;3.10;;
35715;SDS011;21840;44.920;8.616;2023-02-03T16:01:50;13.38;;;3.40;;
35715;SDS011;21840;44.920;8.616;2023-02-03T16:04:17;6.38;;;2.58;;
35715;SDS011;21840;44.920;8.616;2023-02-03T16:06:44;9.45;;;2.85;;
35715;SDS011;21840;44.920;8.616;2023-02-03T16:09:46;6.88;;;2.95;;
35715;SDS011;21840;44.920;8.616;2023-02-03T16:12:21;12.73;;;3.25;;
35715;SDS011;21840;44.920;8.616;2023-02-03T16:14:51;10.95;;;2.88;;
35715;SDS011;21840;44.920;8.616;2023-02-03T16:20:41;8.88;;;3.35;;
35715;SDS011;21840;44.920;8.616;2023-02-03T16:22:46;14.77;;;3.47;;
35715;SDS011;21840;44.920;8.616;2023-02-03T16:25:26;10.45;;;3.55;;
35715;SDS011;21840;44.920;8.616;2023-02-03T16:33:38;17.38;;;2.95;;
35715;SDS011;21840;44.920;8.616;2023-02-03T16:36:22;15.20;;;3.10;;
35715;SDS011;21840;44.920;8.616;2023-02-03T16:39:10;10.35;;;3.55;;
35715;SDS011;21840;44.920;8.616;2023-02-03T16:41:58;13.93;;;5.03;;
35715;SDS011;21840;44.920;8.616;2023-02-03T16:44:42;14.73;;;3.53;;
35715;SDS011;21840;44.920;8.616;2023-02-03T16:47:28;8.63;;;2.35;;
35715;SDS011;21840;44.920;8.616;2023-02-03T16:50:17;15.07;;;3.42;;
35715;SDS011;21840;44.920;8.616;2023-02-03T16:53:03;13.70;;;4.13;;
35715;SDS011;21840;44.920;8.616;2023-02-03T16:55:29;11.70;;;3.95;;
35715;SDS011;21840;44.920;8.616;2023-02-03T16:57:55;9.13;;;3.15;;
35715;SDS011;21840;44.920;8.616;2023-02-03T17:00:21;12.30;;;3.35;;
35715;SDS011;21840;44.920;8.616;2023-02-03T17:02:48;12.13;;;4.07;;
35715;SDS011;21840;44.920;8.616;2023-02-03T17:05:14;11.85;;;4.22;;
35715;SDS011;21840;44.920;8.616;2023-02-03T17:07:40;12.07;;;4.10;;
35715;SDS011;21840;44.920;8.616;2023-02-03T17:10:06;13.02;;;3.88;;
35715;SDS011;21840;44.920;8.616;2023-02-03T17:12:32;13.98;;;4.55;;
35715;SDS011;21840;44.920;8.616;2023-02-03T17:14:58;14.65;;;5.65;;
35715;SDS011;21840;44.920;8.616;2023-02-03T17:17:23;17.92;;;5.05;;
35715;SDS011;21840;44.920;8.616;2023-02-03T17:19:49;10.93;;;4.60;;
35715;SDS011;21840;44.920;8.616;2023-02-03T17:22:15;18.10;;;4.05;;
35715;SDS011;21840;44.920;8.616;2023-02-03T17:24:40;14.90;;;4.90;;
35715;SDS011;21840;44.920;8.616;2023-02-03T17:27:06;16.00;;;4.50;;
35715;SDS011;21840;44.920;8.616;2023-02-03T17:29:31;17.88;;;5.38;;
35715;SDS011;21840;44.920;8.616;2023-02-03T17:31:56;16.55;;;4.57;;
35715;SDS011;21840;44.920;8.616;2023-02-03T17:34:22;13.60;;;4.50;;
35715;SDS011;21840;44.920;8.616;2023-02-03T17:36:47;11.80;;;4.10;;